Time;durP1;ratioP1;P1;durP2;ratioP2;P2;SDS_P1;SDS_P2;PMS_P1;PMS_P2;Temp;Humidity;BMP_temperature;BMP_pressure;BME280_temperature;BME280_humidity;BME280_pressure;Samples;Min_cycle;Max_cycle;Signal;HPM_P1;HPM_P2
2024/04/12 00:01:49;;;;;;;18.23;7.47;;;16.70;78.80;;;;;;5380826;26;20518;-81
2024/04/12 00:04:16;;;;;;;21.08;8.45;;;16.70;79.00;;;;;;5382341;26;20073;-81
2024/04/12 00:06:50;;;;;;;22.08;8.45;;;16.60;79.30;;;;;;5382584;26;20012;-81
2024/04/12 00:09:18;;;;;;;18.45;8.10;;;16.60;79.50;;;;;;5382521;26;20000;-82
2024/04/12 00:11:54;;;;;;;19.30;7.75;;;16.60;79.00;;;;;;5380686;26;20011;-81
2024/04/12 00:14:23;;;;;;;21.88;7.50;;;16.60;79.10;;;;;;5382536;26;20012;-81
2024/04/12 00:16:52;;;;;;;19.65;7.88;;;16.60;79.40;;;;;;5382211;26;20004;-81
2024/04/12 00:19:22;;;;;;;22.55;8.43;;;16.50;79.30;;;;;;5382470;26;20007;-81
2024/04/12 00:21:52;;;;;;;20.95;8.57;;;16.50;79.50;;;;;;5382639;26;20029;-81
2024/04/12 00:24:23;;;;;;;19.50;7.60;;;16.50;79.70;;;;;;5382513;26;20012;-81
2024/04/12 00:26:49;;;;;;;16.50;7.22;;;16.50;79.60;;;;;;5389287;26;20000;-81
2024/04/12 00:29:36;;;;;;;20.60;7.57;;;16.50;79.60;;;;;;5400976;26;19988;-80
2024/04/12 00:32:05;;;;;;;21.77;7.70;;;16.60;79.70;;;;;;5383666;26;20000;-81
2024/04/12 00:34:37;;;;;;;23.55;7.43;;;16.50;79.60;;;;;;5382501;26;20070;-82
2024/04/12 00:37:07;;;;;;;25.08;7.53;;;16.60;79.60;;;;;;5381488;26;20012;-81
2024/04/12 00:39:38;;;;;;;21.15;7.53;;;16.50;79.70;;;;;;5382539;26;19997;-81
2024/04/12 00:42:07;;;;;;;21.00;7.15;;;16.50;79.90;;;;;;5382662;26;20011;-81
2024/04/12 00:44:39;;;;;;;19.73;6.88;;;16.50;80.00;;;;;;5382590;26;20000;-80
2024/04/12 00:47:10;;;;;;;18.52;6.05;;;16.50;80.10;;;;;;5382975;26;19996;-82
2024/04/12 00:49:39;;;;;;;22.27;7.75;;;16.50;80.20;;;;;;5384124;26;20028;-82
2024/04/12 00:52:12;;;;;;;24.08;7.05;;;16.40;80.30;;;;;;5388704;26;20011;-78
2024/04/12 00:54:41;;;;;;;17.17;6.63;;;16.40;80.30;;;;;;5388687;26;20008;-81
2024/04/12 00:57:09;;;;;;;20.83;7.20;;;16.40;80.30;;;;;;5383226;26;20000;-81
2024/04/12 00:59:36;;;;;;;17.42;6.78;;;16.50;80.50;;;;;;5383892;26;20000;-81
2024/04/12 01:02:08;;;;;;;21.40;7.93;;;16.40;80.80;;;;;;5385558;26;20008;-81
2024/04/12 01:04:38;;;;;;;20.85;7.57;;;16.40;80.70;;;;;;5382712;26;20353;-81
2024/04/12 01:07:13;;;;;;;20.35;7.20;;;16.40;80.90;;;;;;5381994;26;20004;-82
2024/04/12 01:09:43;;;;;;;15.90;6.75;;;16.40;81.00;;;;;;5381690;26;20070;-82
2024/04/12 01:12:16;;;;;;;18.00;7.35;;;16.40;81.20;;;;;;5381470;26;20024;-81
2024/04/12 01:14:46;;;;;;;18.85;7.28;;;16.30;81.30;;;;;;5381394;26;19996;-81
2024/04/12 01:17:12;;;;;;;18.27;6.75;;;16.20;81.40;;;;;;5380995;26;20000;-80
2024/04/12 01:19:38;;;;;;;19.50;7.85;;;16.20;81.50;;;;;;5380454;26;19996;-81
2024/04/12 01:22:05;;;;;;;23.55;7.75;;;16.20;81.80;;;;;;5380970;26;20407;-81
2024/04/12 01:24:33;;;;;;;19.05;7.40;;;16.20;81.70;;;;;;5381021;26;20000;-80
2024/04/12 01:27:01;;;;;;;22.15;7.97;;;16.30;81.90;;;;;;5381295;26;20008;-81
2024/04/12 01:29:27;;;;;;;15.90;7.57;;;16.20;81.70;;;;;;5381314;26;20036;-81
2024/04/12 01:31:53;;;;;;;19.17;7.90;;;16.20;81.80;;;;;;5379811;26;20074;-81
2024/04/12 01:34:20;;;;;;;22.98;8.13;;;16.20;81.90;;;;;;5392973;26;19996;-82
2024/04/12 01:36:45;;;;;;;19.50;7.85;;;16.20;82.20;;;;;;5397651;26;20391;-81
2024/04/12 01:39:11;;;;;;;20.75;8.80;;;16.20;82.00;;;;;;5381133;26;20000;-81
2024/04/12 01:41:38;;;;;;;19.17;7.72;;;16.30;82.10;;;;;;5379035;26;20031;-81
2024/04/12 01:44:06;;;;;;;18.08;7.47;;;16.30;82.00;;;;;;5380792;26;20006;-82
2024/04/12 01:46:34;;;;;;;17.58;7.03;;;16.30;82.20;;;;;;5381033;26;19996;-82
2024/04/12 01:49:10;;;;;;;20.42;8.40;;;16.20;82.10;;;;;;5379364;26;19996;-82
2024/04/12 01:51:36;;;;;;;18.50;7.55;;;16.20;82.30;;;;;;5379188;26;20436;-81
2024/04/12 01:54:13;;;;;;;22.88;8.07;;;16.10;82.30;;;;;;5383058;26;20103;-80
2024/04/12 01:56:47;;;;;;;19.55;8.27;;;16.10;82.40;;;;;;5395992;26;19997;-82
2024/04/12 01:59:20;;;;;;;21.25;6.75;;;16.10;82.30;;;;;;5383176;26;20000;-80
2024/04/12 02:01:48;;;;;;;16.77;7.07;;;16.20;82.70;;;;;;5384627;26;20000;-81
2024/04/12 02:04:18;;;;;;;21.50;8.23;;;16.20;82.40;;;;;;5380500;26;20464;-81
2024/04/12 02:06:45;;;;;;;19.30;7.38;;;16.20;82.40;;;;;;5384410;26;20028;-81
2024/04/12 02:09:14;;;;;;;18.48;7.50;;;16.10;82.40;;;;;;5381956;26;20338;-79
2024/04/12 02:11:45;;;;;;;18.80;7.05;;;16.10;82.60;;;;;;5378791;26;20465;-81
2024/04/12 02:14:12;;;;;;;21.40;7.70;;;16.10;82.70;;;;;;5381004;26;20000;-82
2024/04/12 02:16:39;;;;;;;14.75;6.97;;;16.00;82.60;;;;;;5380986;26;20481;-81
2024/04/12 02:19:14;;;;;;;17.63;7.85;;;16.00;82.70;;;;;;5380826;26;20028;-81
2024/04/12 02:21:41;;;;;;;23.05;8.00;;;16.00;82.80;;;;;;5380602;26;19996;-80
2024/04/12 02:24:11;;;;;;;20.48;8.13;;;16.00;82.70;;;;;;5380756;26;20000;-82
2024/04/12 02:26:37;;;;;;;21.48;7.90;;;16.10;83.00;;;;;;5380744;26;20015;-82
2024/04/12 02:29:04;;;;;;;21.33;7.70;;;16.10;82.70;;;;;;5381559;26;20428;-83
2024/04/12 02:31:31;;;;;;;22.50;7.80;;;16.00;82.70;;;;;;5385735;26;20046;-80
2024/04/12 02:33:58;;;;;;;19.05;7.88;;;15.90;82.60;;;;;;5397110;26;20007;-81
2024/04/12 02:36:30;;;;;;;18.63;8.00;;;15.90;83.10;;;;;;5404977;26;20016;-80
2024/04/12 02:38:56;;;;;;;20.48;7.03;;;15.90;83.10;;;;;;5405812;26;19996;-81
2024/04/12 02:41:23;;;;;;;22.08;7.65;;;15.80;82.90;;;;;;5399150;26;20035;-81
2024/04/12 02:43:51;;;;;;;23.45;7.82;;;15.90;83.10;;;;;;5395225;26;20305;-82
2024/04/12 02:46:18;;;;;;;16.30;7.18;;;15.90;83.00;;;;;;5383606;26;20312;-82
2024/04/12 02:48:43;;;;;;;20.88;7.97;;;15.80;83.00;;;;;;5383820;26;20011;-82
2024/04/12 02:51:12;;;;;;;16.13;7.75;;;15.90;83.00;;;;;;5383309;26;20452;-82
2024/04/12 02:53:39;;;;;;;20.73;7.63;;;15.90;82.90;;;;;;5383733;26;20011;-81
2024/04/12 02:56:13;;;;;;;21.25;7.90;;;15.90;82.90;;;;;;5383596;26;19996;-82
2024/04/12 02:58:44;;;;;;;19.55;7.28;;;15.90;83.30;;;;;;5383892;26;20001;-81
2024/04/12 03:01:20;;;;;;;18.80;7.25;;;15.90;82.90;;;;;;5383801;26;20361;-82
2024/04/12 03:03:50;;;;;;;20.63;7.03;;;15.90;83.40;;;;;;5383725;26;20012;-82
2024/04/12 03:06:20;;;;;;;13.75;7.30;;;15.90;82.90;;;;;;5383227;26;20008;-82
2024/04/12 03:08:49;;;;;;;18.35;7.20;;;15.90;82.70;;;;;;5381666;26;19992;-81
2024/04/12 03:11:25;;;;;;;20.00;7.82;;;15.80;82.80;;;;;;5383334;26;20011;-82
2024/04/12 03:13:59;;;;;;;17.83;8.10;;;15.90;82.90;;;;;;5383329;26;20036;-82
2024/04/12 03:16:25;;;;;;;19.33;7.45;;;15.90;83.30;;;;;;5383220;26;20329;-82
2024/04/12 03:18:51;;;;;;;25.25;8.38;;;15.80;83.00;;;;;;5383382;26;20000;-82
2024/04/12 03:21:21;;;;;;;25.65;8.85;;;15.80;83.00;;;;;;5383181;26;19996;-82
2024/04/12 03:23:47;;;;;;;22.58;7.97;;;15.70;82.90;;;;;;5383434;26;20078;-82
2024/04/12 03:26:14;;;;;;;21.40;7.90;;;15.70;83.30;;;;;;5383416;26;20011;-82
2024/04/12 03:28:41;;;;;;;25.50;8.10;;;15.70;83.40;;;;;;5381492;26;20321;-82
2024/04/12 03:31:08;;;;;;;19.65;7.43;;;15.70;83.40;;;;;;5382896;26;19996;-83
2024/04/12 03:33:42;;;;;;;15.57;7.18;;;15.70;83.50;;;;;;5382858;26;20488;-81
2024/04/12 03:36:27;;;;;;;17.55;7.13;;;15.70;83.30;;;;;;5383436;26;20003;-82
2024/04/12 03:41:43;;;;;;;20.08;8.00;;;15.70;83.40;;;;;;5384376;26;20021;-82
2024/04/12 03:44:13;;;;;;;17.73;7.38;;;15.70;83.20;;;;;;5391366;26;19998;-82
2024/04/12 03:46:40;;;;;;;16.85;7.65;;;15.60;83.20;;;;;;5405654;26;20003;-82
2024/04/12 03:49:10;;;;;;;13.15;6.88;;;15.70;83.20;;;;;;5400385;26;20007;-82
2024/04/12 03:51:46;;;;;;;21.05;7.57;;;15.60;83.20;;;;;;5388431;26;20424;-81
2024/04/12 03:54:17;;;;;;;15.75;7.38;;;15.60;83.10;;;;;;5391366;26;20010;-82
2024/04/12 03:56:43;;;;;;;20.38;7.75;;;15.60;83.20;;;;;;5388406;26;20336;-82
2024/04/12 03:59:09;;;;;;;16.63;7.35;;;15.60;83.20;;;;;;5381731;26;20131;-81
2024/04/12 04:01:37;;;;;;;28.10;7.65;;;15.60;83.00;;;;;;5383014;26;20000;-82
2024/04/12 04:04:10;;;;;;;15.95;7.65;;;15.60;83.10;;;;;;5382784;26;20000;-84
2024/04/12 04:06:38;;;;;;;18.30;7.60;;;15.60;83.40;;;;;;5383649;26;20328;-81
2024/04/12 04:09:11;;;;;;;20.13;7.53;;;15.60;83.00;;;;;;5383795;26;20024;-82
2024/04/12 04:11:42;;;;;;;17.87;8.07;;;15.60;83.30;;;;;;5383609;26;20026;-82
2024/04/12 04:14:09;;;;;;;22.40;8.80;;;15.60;83.00;;;;;;5383450;26;19996;-82
2024/04/12 04:16:38;;;;;;;19.02;8.15;;;15.60;83.00;;;;;;5383034;26;20004;-81
2024/04/12 04:19:12;;;;;;;14.32;7.40;;;15.60;82.90;;;;;;5383295;26;20008;-81
2024/04/12 04:21:41;;;;;;;15.57;6.85;;;15.60;83.50;;;;;;5390674;26;20000;-81
2024/04/12 04:24:09;;;;;;;19.52;7.57;;;15.60;82.90;;;;;;5390746;26;19996;-81
2024/04/12 04:26:38;;;;;;;17.70;7.47;;;15.60;83.20;;;;;;5380860;26;20432;-81
2024/04/12 04:29:11;;;;;;;16.48;7.72;;;15.60;82.70;;;;;;5382445;26;20586;-82
2024/04/12 04:31:50;;;;;;;14.23;7.22;;;15.60;82.70;;;;;;5382369;26;20000;-82
2024/04/12 04:34:22;;;;;;;19.15;7.53;;;15.70;82.70;;;;;;5382130;26;20306;-83
2024/04/12 04:36:49;;;;;;;18.92;7.30;;;15.70;82.50;;;;;;5382273;26;20340;-82
2024/04/12 04:39:23;;;;;;;15.00;7.03;;;15.60;82.20;;;;;;5381137;26;20028;-82
2024/04/12 04:41:51;;;;;;;;;;;15.60;83.00;;;;;;5382306;26;19996;-82
2024/04/12 04:44:17;;;;;;;14.73;7.38;;;15.60;82.50;;;;;;5382106;26;19995;-81
2024/04/12 04:46:48;;;;;;;14.77;7.35;;;15.60;82.30;;;;;;5380209;26;20011;-83
2024/04/12 04:49:16;;;;;;;16.35;7.63;;;15.60;82.10;;;;;;5382053;26;20008;-83
2024/04/12 04:51:42;;;;;;;16.60;8.40;;;15.60;82.00;;;;;;5382315;26;20008;-82
2024/04/12 04:54:11;;;;;;;16.33;7.38;;;15.60;81.90;;;;;;5385895;26;20051;-81
2024/04/12 04:56:39;;;;;;;14.48;7.45;;;15.70;82.00;;;;;;5403851;26;19988;-82
2024/04/12 04:59:06;;;;;;;16.02;7.45;;;15.70;81.70;;;;;;5394084;26;20046;-84
2024/04/12 05:01:34;;;;;;;15.45;7.72;;;15.70;81.80;;;;;;5382979;26;20000;-82
2024/04/12 05:04:00;;;;;;;11.68;7.28;;;15.70;81.60;;;;;;5384006;26;20444;-82
2024/04/12 05:06:27;;;;;;;17.58;7.70;;;15.70;81.70;;;;;;5381925;26;20001;-83
2024/04/12 05:09:00;;;;;;;14.30;7.25;;;15.80;81.60;;;;;;5381807;26;20004;-83
2024/04/12 05:11:29;;;;;;;13.57;8.03;;;15.80;81.40;;;;;;5381895;26;20028;-84
2024/04/12 05:14:05;;;;;;;14.52;7.93;;;15.80;81.20;;;;;;5381839;26;20001;-83
2024/04/12 05:16:34;;;;;;;19.02;7.68;;;15.80;81.30;;;;;;5382170;26;20055;-83
2024/04/12 05:19:08;;;;;;;15.45;7.30;;;15.80;80.90;;;;;;5381653;26;19996;-84
2024/04/12 05:21:44;;;;;;;16.98;7.38;;;15.80;80.70;;;;;;5380037;26;20003;-82
2024/04/12 05:24:11;;;;;;;16.00;7.88;;;15.80;80.80;;;;;;5381838;26;19997;-83
2024/04/12 05:26:41;;;;;;;17.90;7.57;;;15.80;80.70;;;;;;5382664;26;19992;-78
2024/04/12 05:29:10;;;;;;;13.38;7.95;;;15.90;80.70;;;;;;5395579;26;20046;-82
2024/04/12 05:31:36;;;;;;;14.45;7.78;;;15.90;80.60;;;;;;5383302;26;20452;-82
2024/04/12 05:34:04;;;;;;;15.95;7.70;;;16.00;80.60;;;;;;5380306;26;20000;-83
2024/04/12 05:36:32;;;;;;;15.52;7.53;;;16.00;80.40;;;;;;5382419;26;20337;-84
2024/04/12 05:39:00;;;;;;;16.98;7.88;;;16.10;80.20;;;;;;5383023;26;20000;-83
2024/04/12 05:41:32;;;;;;;15.63;8.02;;;16.10;80.10;;;;;;5382609;26;20000;-83
2024/04/12 05:43:57;;;;;;;15.60;8.25;;;16.20;79.90;;;;;;5382299;26;20012;-82
2024/04/12 05:46:23;;;;;;;18.95;8.63;;;16.30;79.80;;;;;;5380063;26;20325;-82
2024/04/12 05:48:49;;;;;;;23.23;8.63;;;16.40;79.60;;;;;;5382311;26;20077;-82
2024/04/12 05:51:14;;;;;;;23.02;12.35;;;16.50;79.30;;;;;;5381725;26;20033;-83
2024/04/12 05:53:40;;;;;;;15.82;8.60;;;16.50;79.10;;;;;;5381537;26;20074;-84
2024/04/12 05:56:21;;;;;;;17.45;8.48;;;16.70;79.00;;;;;;5381879;26;20520;-84
2024/04/12 05:58:47;;;;;;;16.90;7.63;;;16.80;78.70;;;;;;5381674;26;20074;-83
2024/04/12 06:01:12;;;;;;;16.65;8.38;;;16.90;78.40;;;;;;5382479;26;20004;-83
2024/04/12 06:03:48;;;;;;;21.15;9.10;;;17.10;78.20;;;;;;5380155;26;20387;-75
2024/04/12 06:06:15;;;;;;;16.70;8.82;;;17.20;77.70;;;;;;5385168;26;19996;-74
2024/04/12 06:08:45;;;;;;;17.60;8.68;;;17.30;77.40;;;;;;5400747;26;20039;-72
2024/04/12 06:11:13;;;;;;;13.30;8.23;;;17.50;77.00;;;;;;5383752;26;20011;-71
2024/04/12 06:13:38;;;;;;;23.17;8.38;;;17.80;76.40;;;;;;5381368;26;20004;-71
2024/04/12 06:16:04;;;;;;;17.88;7.50;;;18.00;75.50;;;;;;5382694;26;20004;-71
2024/04/12 06:18:30;;;;;;;13.23;8.25;;;18.20;75.20;;;;;;5376084;26;20351;-70
2024/04/12 06:20:56;;;;;;;18.60;7.60;;;18.50;74.40;;;;;;5383712;26;20007;-70
2024/04/12 06:23:22;;;;;;;16.33;7.97;;;18.60;73.90;;;;;;5383270;26;19992;-70
2024/04/12 06:25:49;;;;;;;16.15;7.45;;;19.00;73.10;;;;;;5383301;26;20319;-70
2024/04/12 06:28:15;;;;;;;14.95;7.72;;;19.30;72.00;;;;;;5377300;26;20040;-70
2024/04/12 06:30:47;;;;;;;14.70;7.53;;;19.80;70.80;;;;;;5383307;26;20040;-72
2024/04/12 06:33:22;;;;;;;22.95;8.95;;;20.40;70.20;;;;;;5383487;26;20099;-72
2024/04/12 06:36:04;;;;;;;15.32;7.35;;;20.90;69.40;;;;;;5383185;26;20374;-72
2024/04/12 06:38:31;;;;;;;16.08;7.60;;;21.40;68.00;;;;;;5376821;26;20464;-72
2024/04/12 06:40:57;;;;;;;20.40;7.82;;;21.90;67.20;;;;;;5382819;26;20004;-71
2024/04/12 06:43:23;;;;;;;12.05;6.90;;;22.30;66.20;;;;;;5380799;26;20007;-72
2024/04/12 06:46:07;;;;;;;12.98;6.93;;;22.80;64.80;;;;;;5380750;26;20008;-73
2024/04/12 06:48:40;;;;;;;20.35;7.35;;;23.00;64.00;;;;;;5376655;26;20012;-73
2024/04/12 06:51:11;;;;;;;21.27;7.03;;;23.60;61.80;;;;;;5382776;26;20050;-73
2024/04/12 06:53:44;;;;;;;16.42;6.30;;;24.30;60.50;;;;;;5382664;26;20073;-73
2024/04/12 06:56:15;;;;;;;16.30;7.43;;;24.60;60.10;;;;;;5382950;26;20000;-72
2024/04/12 06:58:43;;;;;;;16.33;6.57;;;24.80;59.00;;;;;;5381957;26;20231;-74
2024/04/12 07:01:10;;;;;;;9.32;6.05;;;24.90;58.50;;;;;;5382686;26;20452;-73
2024/04/12 07:03:36;;;;;;;15.52;6.78;;;24.70;58.30;;;;;;5382794;26;20354;-71
2024/04/12 07:06:07;;;;;;;13.02;6.60;;;24.90;58.30;;;;;;5382920;26;20418;-75
2024/04/12 07:08:33;;;;;;;14.70;6.72;;;25.00;58.00;;;;;;5381990;26;20527;-75
2024/04/12 07:11:06;;;;;;;14.93;7.78;;;24.90;57.70;;;;;;5383200;26;20011;-73
2024/04/12 07:13:33;;;;;;;16.33;7.13;;;24.50;57.60;;;;;;5383765;26;19996;-75
2024/04/12 07:16:03;;;;;;;14.43;7.22;;;24.90;57.50;;;;;;5399324;26;20379;-72
2024/04/12 07:18:30;;;;;;;14.60;6.88;;;25.70;56.40;;;;;;5375712;26;20023;-73
2024/04/12 07:21:14;;;;;;;12.23;6.25;;;26.10;55.50;;;;;;5382518;26;20051;-72
2024/04/12 07:23:51;;;;;;;11.75;6.78;;;26.10;55.10;;;;;;5382725;26;19996;-72
2024/04/12 07:26:29;;;;;;;11.90;6.63;;;25.60;55.00;;;;;;5382864;26;20028;-72
2024/04/12 07:29:02;;;;;;;16.65;6.72;;;25.40;55.30;;;;;;5376378;26;20000;-69
2024/04/12 07:31:30;;;;;;;11.50;6.75;;;24.40;56.00;;;;;;5382231;26;20038;-69
2024/04/12 07:33:59;;;;;;;12.15;6.13;;;23.40;57.60;;;;;;5382619;26;20463;-69
2024/04/12 07:36:30;;;;;;;12.05;6.70;;;22.80;58.60;;;;;;5382252;26;19996;-74
2024/04/12 07:39:01;;;;;;;10.52;6.15;;;22.30;59.30;;;;;;5375996;26;20118;-74
2024/04/12 07:41:48;;;;;;;9.13;5.70;;;22.10;60.10;;;;;;5381651;26;20000;-74
2024/04/12 07:44:15;;;;;;;12.77;6.72;;;22.00;60.70;;;;;;5381815;26;20045;-72
2024/04/12 07:46:51;;;;;;;12.52;6.15;;;21.80;60.90;;;;;;5379457;26;20463;-73
2024/04/12 07:49:17;;;;;;;12.35;6.63;;;21.70;61.20;;;;;;5380176;26;20033;-75
2024/04/12 07:51:47;;;;;;;11.30;6.15;;;21.70;61.70;;;;;;5382129;26;20016;-76
2024/04/12 07:54:13;;;;;;;12.50;7.22;;;21.70;62.50;;;;;;5382231;26;19996;-71
2024/04/12 07:56:56;;;;;;;16.52;6.85;;;21.70;62.20;;;;;;5379393;26;20000;-74
2024/04/12 07:59:25;;;;;;;14.15;6.43;;;21.60;62.30;;;;;;5381280;26;20448;-76
2024/04/12 08:01:52;;;;;;;13.27;6.93;;;21.40;63.30;;;;;;5381596;26;20443;-79
2024/04/12 08:04:25;;;;;;;9.02;6.07;;;21.30;63.20;;;;;;5382269;26;20040;-73
2024/04/12 08:06:57;;;;;;;;;;;21.30;63.70;;;;;;5378123;26;20000;-74
2024/04/12 08:09:42;;;;;;;12.32;5.68;;;21.20;63.90;;;;;;5380666;26;19925;-73
2024/04/12 08:12:17;;;;;;;12.93;6.90;;;21.20;63.90;;;;;;5381440;26;20004;-74
2024/04/12 08:15:06;;;;;;;13.70;6.22;;;21.10;64.10;;;;;;5381241;26;20006;-73
2024/04/12 08:17:39;;;;;;;11.50;6.28;;;21.20;64.30;;;;;;5376669;26;20005;-75
2024/04/12 08:20:16;;;;;;;11.80;6.03;;;21.10;64.80;;;;;;5402046;26;20003;-73
2024/04/12 08:22:43;;;;;;;15.30;7.20;;;21.20;64.60;;;;;;5383796;26;20230;-74
2024/04/12 08:25:08;;;;;;;13.95;6.95;;;21.20;64.20;;;;;;5381223;26;20026;-74
2024/04/12 08:27:36;;;;;;;9.80;5.60;;;21.20;64.20;;;;;;5378343;26;20015;-74
2024/04/12 08:30:13;;;;;;;12.00;6.05;;;21.30;64.00;;;;;;5379202;26;20007;-73
2024/04/12 08:32:48;;;;;;;12.95;6.95;;;21.30;64.00;;;;;;5380885;26;20011;-74
2024/04/12 08:35:19;;;;;;;13.48;6.72;;;21.30;64.30;;;;;;5379337;26;20382;-73
2024/04/12 08:37:46;;;;;;;14.38;6.88;;;21.40;64.00;;;;;;5379733;26;20282;-73
2024/04/12 08:40:12;;;;;;;15.75;6.75;;;21.40;64.10;;;;;;5381027;26;20011;-72
2024/04/12 08:42:39;;;;;;;11.77;6.30;;;21.40;64.00;;;;;;5381252;26;20000;-73
2024/04/12 08:45:36;;;;;;;13.30;6.60;;;21.30;64.00;;;;;;5381118;26;19996;-73
2024/04/12 08:48:04;;;;;;;13.77;6.90;;;21.30;64.20;;;;;;5374470;26;20007;-73
2024/04/12 08:50:31;;;;;;;13.65;6.75;;;21.30;64.60;;;;;;5380994;26;20069;-71
2024/04/12 08:52:58;;;;;;;16.10;7.40;;;21.30;63.90;;;;;;5380842;26;20001;-73
2024/04/12 08:55:25;;;;;;;17.13;7.20;;;21.30;64.20;;;;;;5380533;26;20321;-73
2024/04/12 08:58:00;;;;;;;14.90;7.13;;;21.40;65.10;;;;;;5380069;26;20399;-72
2024/04/12 09:00:34;;;;;;;16.15;7.30;;;21.40;64.10;;;;;;5381009;26;20007;-73
2024/04/12 09:03:10;;;;;;;20.23;7.80;;;21.50;64.10;;;;;;5381051;26;20490;-72
2024/04/12 09:05:38;;;;;;;16.02;7.35;;;21.50;64.10;;;;;;5381110;26;20122;-74
2024/04/12 09:08:05;;;;;;;15.95;6.82;;;21.50;63.50;;;;;;5374988;26;20012;-71
2024/04/12 09:10:34;;;;;;;16.58;7.10;;;21.60;63.80;;;;;;5380903;26;20046;-73
2024/04/12 09:13:02;;;;;;;13.85;6.00;;;21.60;63.50;;;;;;5380772;26;20055;-73
2024/04/12 09:15:27;;;;;;;14.27;6.65;;;21.60;63.60;;;;;;5380733;26;20015;-72
2024/04/12 09:20:39;;;;;;;12.98;6.22;;;21.70;63.40;;;;;;5380959;26;20027;-72
2024/04/12 09:23:14;;;;;;;13.52;6.82;;;21.80;63.20;;;;;;5384040;26;20000;-73
2024/04/12 09:25:58;;;;;;;16.33;6.25;;;21.90;62.70;;;;;;5385519;26;20044;-73
2024/04/12 09:28:30;;;;;;;18.02;7.00;;;22.00;63.10;;;;;;5379587;26;19996;-74
2024/04/12 09:33:50;;;;;;;21.00;6.45;;;22.10;62.50;;;;;;5379947;26;20169;-72
2024/04/12 09:36:55;;;;;;;15.65;6.65;;;22.10;62.40;;;;;;5378836;26;20348;-74
2024/04/12 09:39:16;;;;;;;15.90;6.57;;;22.20;62.40;;;;;;5377328;26;20047;-71
2024/04/12 09:41:56;;;;;;;19.20;6.70;;;22.20;62.40;;;;;;5383548;26;19996;-74
2024/04/12 09:44:37;;;;;;;17.50;6.75;;;22.30;62.10;;;;;;5383654;26;20007;-73
2024/04/12 10:39:45;;;;;;;11.60;5.72;;;24.10;59.10;;;;;;5382368;26;20074;-77
2024/04/12 10:42:14;;;;;;;16.13;6.15;;;24.20;58.40;;;;;;5383379;26;20010;-81
2024/04/12 10:44:47;;;;;;;11.93;5.82;;;24.20;58.20;;;;;;5383232;26;20154;-79
2024/04/12 10:47:13;;;;;;;11.65;5.40;;;24.30;57.50;;;;;;5378085;26;20024;-80
2024/04/12 10:49:43;;;;;;;14.90;5.45;;;24.40;57.50;;;;;;5381894;26;20004;-77
2024/04/12 10:52:13;;;;;;;11.30;4.55;;;24.50;56.70;;;;;;5380424;26;20000;-77
2024/04/12 10:54:42;;;;;;;12.43;5.57;;;24.60;56.90;;;;;;5382712;26;20042;-78
2024/04/12 10:57:10;;;;;;;18.83;6.35;;;24.70;56.70;;;;;;5376989;26;20008;-74
2024/04/12 10:59:42;;;;;;;11.15;5.85;;;24.80;57.00;;;;;;5380046;26;20403;-75
2024/04/12 11:02:10;;;;;;;13.52;6.25;;;24.90;56.90;;;;;;5382854;26;20444;-79
2024/04/12 11:07:27;;;;;;;16.48;5.90;;;25.10;56.30;;;;;;5377870;26;20019;-76
2024/04/12 11:10:03;;;;;;;17.30;6.57;;;25.10;56.70;;;;;;5382021;26;20052;-74
2024/04/12 11:12:40;;;;;;;17.65;6.82;;;25.30;56.40;;;;;;5383205;26;19996;-78
2024/04/12 11:32:15;;;;;;;17.83;6.00;;;25.90;54.20;;;;;;5384570;26;20036;-71
2024/04/12 11:34:42;;;;;;;12.27;5.55;;;26.00;54.00;;;;;;5382750;26;20401;-72
2024/04/12 11:37:09;;;;;;;13.45;6.85;;;26.10;53.50;;;;;;5377101;26;20008;-73
2024/04/12 11:39:36;;;;;;;18.10;6.20;;;26.10;54.20;;;;;;5381560;26;20036;-72
2024/04/12 11:42:06;;;;;;;13.23;8.20;;;26.20;53.60;;;;;;5383387;26;20011;-71
2024/04/12 11:44:33;;;;;;;17.13;6.38;;;26.20;55.10;;;;;;5382337;26;20095;-72
2024/04/12 11:47:02;;;;;;;11.18;5.45;;;26.30;54.80;;;;;;5381155;26;20000;-73
2024/04/12 11:49:38;;;;;;;9.02;5.05;;;26.30;53.60;;;;;;5382201;26;20091;-73
2024/04/12 11:52:11;;;;;;;11.45;5.32;;;26.30;53.10;;;;;;5382256;26;19992;-72
2024/04/12 11:54:37;;;;;;;11.13;5.32;;;26.40;52.90;;;;;;5382083;26;20007;-73
2024/04/12 11:57:05;;;;;;;10.68;5.75;;;26.50;53.00;;;;;;5376460;26;20448;-73
2024/04/12 11:59:32;;;;;;;15.68;5.53;;;26.60;53.80;;;;;;5380678;26;20466;-73
2024/04/12 12:02:04;;;;;;;9.90;4.53;;;26.60;52.70;;;;;;5381584;26;20000;-72
2024/04/12 12:04:30;;;;;;;11.90;4.97;;;26.70;51.80;;;;;;5381964;26;20432;-73
2024/04/12 12:06:59;;;;;;;11.30;5.78;;;26.80;51.10;;;;;;5381054;26;19996;-72
2024/04/12 12:09:31;;;;;;;8.50;4.20;;;26.90;52.00;;;;;;5380715;26;20014;-75
2024/04/12 12:11:57;;;;;;;12.23;4.43;;;27.00;51.00;;;;;;5381758;26;19997;-73
2024/04/12 12:14:25;;;;;;;8.20;4.30;;;27.10;51.20;;;;;;5382056;26;20004;-74
2024/04/12 12:16:54;;;;;;;7.97;4.53;;;27.20;51.80;;;;;;5377694;26;20003;-73
2024/04/12 12:19:23;;;;;;;10.45;4.80;;;27.20;50.10;;;;;;5366693;26;20001;-73
2024/04/12 12:21:51;;;;;;;12.65;4.40;;;27.30;51.20;;;;;;5381025;26;19996;-72
2024/04/12 12:24:17;;;;;;;10.50;4.50;;;27.40;50.20;;;;;;5381378;26;20452;-74
2024/04/12 12:26:44;;;;;;;13.05;4.60;;;27.50;50.80;;;;;;5378566;26;20115;-72
2024/04/12 12:29:13;;;;;;;10.48;4.90;;;27.50;50.70;;;;;;5379833;26;20000;-73
2024/04/12 12:31:39;;;;;;;12.82;5.07;;;27.50;50.50;;;;;;5394695;26;20054;-74
2024/04/12 12:34:05;;;;;;;11.88;4.28;;;27.60;50.80;;;;;;5402531;26;20024;-72
2024/04/12 12:36:33;;;;;;;12.93;4.93;;;27.60;50.20;;;;;;5387581;26;19998;-73
2024/04/12 12:38:59;;;;;;;12.40;5.03;;;27.70;49.70;;;;;;5378941;26;19996;-73
2024/04/12 12:41:25;;;;;;;10.05;4.28;;;27.70;49.90;;;;;;5381827;26;19996;-73
2024/04/12 12:43:52;;;;;;;10.90;3.75;;;27.70;50.00;;;;;;5381605;26;20016;-73
2024/04/12 12:46:24;;;;;;;9.95;5.28;;;27.70;48.70;;;;;;5381293;26;20011;-73
2024/04/12 12:48:52;;;;;;;11.15;5.30;;;27.70;49.00;;;;;;5375397;26;20000;-73
2024/04/12 12:51:26;;;;;;;17.95;4.97;;;27.60;49.70;;;;;;5381376;26;20032;-74
2024/04/12 12:53:56;;;;;;;9.13;4.28;;;27.60;50.10;;;;;;5381395;26;19993;-73
2024/04/12 12:56:22;;;;;;;16.13;5.03;;;27.70;50.50;;;;;;5381380;26;20000;-73
2024/04/12 12:58:48;;;;;;;7.80;3.83;;;27.80;51.00;;;;;;5380109;26;20000;-74
2024/04/12 13:01:16;;;;;;;20.75;4.82;;;27.90;50.40;;;;;;5379464;26;20010;-73
2024/04/12 13:03:43;;;;;;;8.57;4.10;;;27.90;50.20;;;;;;5381119;26;20421;-73
2024/04/12 13:06:21;;;;;;;6.93;3.72;;;27.90;50.20;;;;;;5380887;26;20007;-73
2024/04/12 13:08:48;;;;;;;10.18;4.85;;;28.00;50.00;;;;;;5374525;26;20337;-73
2024/04/12 13:11:23;;;;;;;14.73;4.60;;;28.20;50.20;;;;;;5381094;26;20011;-72
2024/04/12 13:13:50;;;;;;;18.48;4.82;;;28.20;50.30;;;;;;5379836;26;20004;-73
2024/04/12 13:16:16;;;;;;;12.65;4.35;;;28.20;49.90;;;;;;5381075;26;20066;-72
2024/04/12 13:18:52;;;;;;;11.82;4.25;;;28.30;50.20;;;;;;5374840;26;20491;-73
2024/04/12 13:21:19;;;;;;;13.02;5.07;;;28.30;49.70;;;;;;5380860;26;19996;-72
2024/04/12 13:23:47;;;;;;;12.93;4.35;;;28.30;50.70;;;;;;5380728;26;19996;-73
2024/04/12 13:26:22;;;;;;;11.25;3.88;;;28.30;49.40;;;;;;5380935;26;20004;-72
2024/04/12 13:28:52;;;;;;;8.80;3.42;;;28.40;47.90;;;;;;5374987;26;20027;-74
2024/04/12 13:31:25;;;;;;;14.50;3.83;;;28.40;47.30;;;;;;5381578;26;20000;-72
2024/04/12 13:33:52;;;;;;;9.27;3.83;;;28.40;44.50;;;;;;5397434;26;20097;-72
2024/04/12 13:36:20;;;;;;;15.30;4.53;;;28.40;45.20;;;;;;5380813;26;20000;-71
2024/04/12 13:38:49;;;;;;;14.32;4.03;;;28.50;45.20;;;;;;5379625;26;19996;-72
2024/04/12 13:41:21;;;;;;;11.57;3.55;;;28.50;45.10;;;;;;5381162;26;19997;-71
2024/04/12 13:43:49;;;;;;;10.90;4.07;;;28.50;45.50;;;;;;5380389;26;20011;-71
2024/04/12 13:51:50;;;;;;;8.00;3.35;;;28.40;46.30;;;;;;5380328;26;20007;-72
2024/04/12 13:54:21;;;;;;;7.80;3.60;;;28.40;46.20;;;;;;5380150;26;20373;-71
2024/04/12 13:56:56;;;;;;;10.25;3.20;;;28.40;46.30;;;;;;5376347;26;19996;-71
2024/04/12 13:59:25;;;;;;;7.85;3.50;;;28.30;45.20;;;;;;5378073;26;20456;-72
2024/04/12 14:01:51;;;;;;;9.00;3.47;;;28.40;44.00;;;;;;5377796;26;19997;-72
2024/04/12 14:04:26;;;;;;;6.90;3.20;;;28.50;44.80;;;;;;5379012;26;20000;-74
2024/04/12 14:06:52;;;;;;;11.70;3.75;;;28.60;44.00;;;;;;5374768;26;20447;-74
2024/04/12 14:09:24;;;;;;;9.07;3.30;;;28.50;44.00;;;;;;5377777;26;20001;-69
2024/04/12 14:11:50;;;;;;;11.20;4.15;;;28.60;43.70;;;;;;5379791;26;20073;-67
2024/04/12 14:14:20;;;;;;;9.93;3.40;;;28.60;44.90;;;;;;5379407;26;20011;-68
2024/04/12 14:16:51;;;;;;;11.30;4.50;;;28.60;44.80;;;;;;5375840;26;19996;-68
2024/04/12 14:19:17;;;;;;;9.40;3.90;;;28.60;44.40;;;;;;5376823;26;20008;-68